Newton, New Jersey
Current Conditions -  °F | °C
As of 11:49 PM on Thursday 18 Dec 2014 (Local Time) from KFWN Reporting Station
Overcast Overcast  
Wind Chill: 31°   Ceiling: 4000
Heat Index: 36°   Visibility: 10mi
Dew Point: 27°   Wind: 6mph
Humidity: 70%   Direction: 310°NW
Pressure: 29.97"   Gusts: NA
Location:  41.06°N, 74.75°W
Report Text: KFWN 190449Z AUTO 31005KT 10SM SCT028 OVC040 02/M03 A2997 RMK AO2
Loading
Personal Weather Stations






























Interactive Weather Map New forecast layout! Learn more

10-Day Weather Forecast

Advertisements
Track Severe Weather on mobile